Wetterdaten: Woche 11.02.13 - 17.02.13 (KW7)
Datum Zeit Temperatur Luftfeuchte Luftdruck Regen Wind Richtung Sonnenschein ET UV Solar Taupunkt Windchill Windben
11.02.2013 00:00 -5,0 C 82 % 1007,2 hPa 0,0 l/m 7,0 km/h (2 Bft) NO 0,00 h 0,000 mm 0,0 UV-I 0 W/m -7,7 C -5,9 C 14,1 km/h (3 Bft)
11.02.2013 01:00 -5,2 C 80 % 1006,7 hPa 0,0 l/m 7,3 km/h (2 Bft) O-NO 0,00 h 0,000 mm 0,0 UV-I 0 W/m -8,1 C -6,4 C 15,4 km/h (3 Bft)
11.02.2013 02:00 -5,4 C 79 % 1006,1 hPa 0,0 l/m 7,3 km/h (2 Bft) O-NO 0,00 h 0,025 mm 0,0 UV-I 0 W/m -8,4 C -6,5 C 14,9 km/h (3 Bft)
11.02.2013 03:00 -5,8 C 80 % 1005,6 hPa 0,0 l/m 7,1 km/h (2 Bft) O-NO 0,00 h 0,026 mm 0,0 UV-I 0 W/m -8,6 C -6,7 C 14,6 km/h (3 Bft)
11.02.2013 04:00 -5,6 C 80 % 1005,3 hPa 0,0 l/m 8,0 km/h (2 Bft) O-NO 0,00 h 0,000 mm 0,0 UV-I 0 W/m -8,4 C -7,5 C 15,6 km/h (3 Bft)
11.02.2013 05:00 -5,3 C 80 % 1005,0 hPa 0,0 l/m 7,8 km/h (2 Bft) O-NO 0,00 h 0,000 mm 0,0 UV-I 0 W/m -8,2 C -6,9 C 16,0 km/h (3 Bft)
11.02.2013 06:00 -4,8 C 79 % 1004,6 hPa 0,0 l/m 9,3 km/h (2 Bft) O-NO 0,00 h 0,025 mm 0,0 UV-I 0 W/m -7,9 C -8,0 C 17,4 km/h (3 Bft)
11.02.2013 07:00 -4,9 C 78 % 1004,4 hPa 0,0 l/m 7,8 km/h (2 Bft) O-NO 0,00 h 0,026 mm 0,0 UV-I 7 W/m -8,2 C -6,6 C 15,0 km/h (3 Bft)
11.02.2013 08:00 -5,2 C 80 % 1004,6 hPa 0,0 l/m 6,8 km/h (2 Bft) O-NO 0,00 h 0,000 mm 0,0 UV-I 31 W/m -8,2 C -6,1 C 13,0 km/h (3 Bft)
11.02.2013 09:00 -4,5 C 78 % 1004,5 hPa 0,0 l/m 6,9 km/h (2 Bft) O-NO 0,00 h 0,025 mm 0,5 UV-I 89 W/m -7,8 C -5,4 C 14,6 km/h (3 Bft)
11.02.2013 10:00 -3,6 C 75 % 1004,3 hPa 0,0 l/m 8,0 km/h (2 Bft) O-NO 0,00 h 0,025 mm 0,7 UV-I 154 W/m -7,3 C -5,4 C 16,0 km/h (3 Bft)
11.02.2013 11:00 -2,5 C 73 % 1004,4 hPa 0,0 l/m 9,3 km/h (2 Bft) O-NO 0,92 h 0,051 mm 0,9 UV-I 228 W/m -6,8 C -5,5 C 18,5 km/h (3 Bft)
11.02.2013 12:00 -1,6 C 70 % 1004,2 hPa 0,0 l/m 11,0 km/h (2 Bft) O-NO 1,00 h 0,076 mm 1,0 UV-I 261 W/m -6,4 C -6,0 C 19,6 km/h (3 Bft)
11.02.2013 13:00 -0,7 C 68 % 1003,9 hPa 0,0 l/m 10,9 km/h (2 Bft) O-NO 1,00 h 0,102 mm 1,0 UV-I 274 W/m -5,9 C -4,8 C 20,0 km/h (4 Bft)
11.02.2013 14:00 -0,4 C 67 % 1003,9 hPa 0,0 l/m 10,7 km/h (2 Bft) O-NO 0,58 h 0,102 mm 0,8 UV-I 199 W/m -5,8 C -4,3 C 20,4 km/h (4 Bft)
11.02.2013 15:00 -0,8 C 68 % 1004,0 hPa 0,0 l/m 11,9 km/h (2 Bft) O-NO 0,00 h 0,101 mm 0,5 UV-I 115 W/m -5,9 C -5,8 C 21,8 km/h (4 Bft)
11.02.2013 16:00 -1,2 C 70 % 1004,2 hPa 0,0 l/m 11,6 km/h (2 Bft) O-NO 0,00 h 0,051 mm 0,0 UV-I 57 W/m -5,9 C -6,0 C 24,0 km/h (4 Bft)
11.02.2013 17:00 -1,6 C 73 % 1004,6 hPa 0,0 l/m 11,8 km/h (2 Bft) NO 0,00 h 0,051 mm 0,0 UV-I 11 W/m -5,8 C -6,7 C 23,5 km/h (4 Bft)
11.02.2013 18:00 -2,1 C 76 % 1005,2 hPa 0,0 l/m 10,9 km/h (2 Bft) O-NO 0,00 h 0,025 mm 0,0 UV-I 0 W/m -5,7 C -6,5 C 21,6 km/h (4 Bft)
11.02.2013 19:00 -2,3 C 78 % 1005,7 hPa 0,0 l/m 9,3 km/h (2 Bft) O-NO 0,00 h 0,026 mm 0,0 UV-I 0 W/m -5,6 C -5,3 C 18,5 km/h (3 Bft)
11.02.2013 20:00 -2,5 C 80 % 1006,1 hPa 0,0 l/m 8,6 km/h (2 Bft) O-NO 0,00 h 0,025 mm 0,0 UV-I 0 W/m -5,5 C -4,9 C 18,2 km/h (3 Bft)
11.02.2013 21:00 -2,6 C 81 % 1006,6 hPa 0,0 l/m 8,4 km/h (2 Bft) NO 0,00 h 0,025 mm 0,0 UV-I 0 W/m -5,4 C -5,1 C 16,9 km/h (3 Bft)
11.02.2013 22:00 -2,7 C 81 % 1007,2 hPa 0,0 l/m 8,8 km/h (2 Bft) O-NO 0,00 h 0,026 mm 0,0 UV-I 0 W/m -5,5 C -5,2 C 18,9 km/h (3 Bft)
11.02.2013 23:00 -2,8 C 82 % 1007,3 hPa 0,0 l/m 8,3 km/h (2 Bft) NO 0,00 h 0,025 mm 0,0 UV-I 0 W/m -5,5 C -5,0 C 18,2 km/h (3 Bft)
12.02.2013 00:00 -3,0 C 82 % 1007,6 hPa 0,0 l/m 6,5 km/h (2 Bft) NO 0,00 h 0,000 mm 0,0 UV-I 0 W/m -5,7 C -3,9 C 15,6 km/h (3 Bft)
12.02.2013 01:00 -2,8 C 81 % 1007,9 hPa 0,0 l/m 8,9 km/h (2 Bft) NO 0,00 h 0,000 mm 0,0 UV-I 0 W/m -5,5 C -5,5 C 19,2 km/h (3 Bft)
12.02.2013 02:00 -2,6 C 80 % 1008,0 hPa 0,0 l/m 9,2 km/h (2 Bft) O-NO 0,00 h 0,025 mm 0,0 UV-I 0 W/m -5,6 C -5,6 C 18,8 km/h (3 Bft)
12.02.2013 03:00 -2,6 C 80 % 1008,1 hPa 0,0 l/m 9,1 km/h (2 Bft) NO 0,00 h 0,026 mm 0,0 UV-I 0 W/m -5,5 C -5,4 C 19,4 km/h (3 Bft)
12.02.2013 04:00 -2,6 C 80 % 1008,5 hPa 0,0 l/m 8,8 km/h (2 Bft) NO 0,00 h 0,025 mm 0,0 UV-I 0 W/m -5,5 C -5,3 C 20,0 km/h (4 Bft)
12.02.2013 05:00 -2,6 C 80 % 1009,0 hPa 0,0 l/m 8,2 km/h (2 Bft) NO 0,00 h 0,026 mm 0,0 UV-I 0 W/m -5,5 C -4,6 C 16,9 km/h (3 Bft)
12.02.2013 06:00 -2,8 C 78 % 1009,8 hPa 0,0 l/m 8,4 km/h (2 Bft) NO 0,00 h 0,025 mm 0,0 UV-I 0 W/m -6,1 C -5,1 C 19,3 km/h (3 Bft)
12.02.2013 07:00 -2,9 C 77 % 1010,3 hPa 0,0 l/m 8,7 km/h (2 Bft) O-NO 0,00 h 0,025 mm 0,0 UV-I 0 W/m -6,4 C -5,4 C 19,6 km/h (3 Bft)
12.02.2013 08:00 -2,8 C 76 % 1010,9 hPa 0,0 l/m 7,3 km/h (2 Bft) NO 0,00 h 0,026 mm 0,0 UV-I 15 W/m -6,4 C -4,6 C 16,9 km/h (3 Bft)
12.02.2013 09:00 -2,6 C 74 % 1011,7 hPa 0,0 l/m 7,9 km/h (2 Bft) NO 0,00 h 0,025 mm 0,0 UV-I 50 W/m -6,5 C -4,5 C 17,3 km/h (3 Bft)
12.02.2013 10:00 -2,2 C 72 % 1012,1 hPa 0,0 l/m 8,0 km/h (2 Bft) O-NO 0,00 h 0,026 mm 0,5 UV-I 93 W/m -6,6 C -4,2 C 18,6 km/h (3 Bft)
12.02.2013 11:00 -2,0 C 70 % 1012,7 hPa 0,0 l/m 9,8 km/h (2 Bft) O-NO 0,00 h 0,050 mm 0,6 UV-I 122 W/m -6,6 C -5,2 C 19,4 km/h (3 Bft)
12.02.2013 12:00 -1,5 C 69 % 1012,9 hPa 0,0 l/m 5,6 km/h (1 Bft) NO 0,00 h 0,051 mm 0,7 UV-I 159 W/m -6,4 C -2,1 C 14,6 km/h (3 Bft)
12.02.2013 13:00 -1,1 C 66 % 1013,0 hPa 0,0 l/m 7,3 km/h (2 Bft) N-NO 0,33 h 0,076 mm 0,8 UV-I 246 W/m -6,6 C -3,0 C 16,5 km/h (3 Bft)
12.02.2013 14:00 -0,0 C 62 % 1013,0 hPa 0,0 l/m 3,7 km/h (1 Bft) N-NO 0,58 h 0,102 mm 0,8 UV-I 247 W/m -6,4 C -0,0 C 10,3 km/h (2 Bft)
12.02.2013 15:00 0,7 C 61 % 1013,5 hPa 0,0 l/m 3,7 km/h (1 Bft) N-NO 0,33 h 0,102 mm 0,6 UV-I 168 W/m -6,1 C 0,7 C 9,4 km/h (2 Bft)
12.02.2013 16:00 -0,7 C 64 % 1014,1 hPa 0,0 l/m 2,9 km/h (1 Bft) N-NO 0,00 h 0,050 mm 0,0 UV-I 41 W/m -6,6 C -0,7 C 9,2 km/h (2 Bft)
12.02.2013 17:00 -1,4 C 67 % 1014,8 hPa 0,0 l/m 1,8 km/h (1 Bft) NO 0,00 h 0,026 mm 0,0 UV-I 8 W/m -6,7 C -1,4 C 6,8 km/h (2 Bft)
12.02.2013 18:00 -1,6 C 69 % 1015,5 hPa 0,0 l/m 1,2 km/h (1 Bft) NO 0,00 h 0,000 mm 0,0 UV-I 0 W/m -6,5 C -1,6 C 5,7 km/h (1 Bft)
12.02.2013 19:00 -1,8 C 71 % 1016,1 hPa 0,0 l/m 1,0 km/h (0 Bft) NO 0,00 h 0,025 mm 0,0 UV-I 0 W/m -6,3 C -1,8 C 4,3 km/h (1 Bft)
12.02.2013 20:00 -1,8 C 72 % 1016,6 hPa 0,0 l/m 0,2 km/h (0 Bft) N 0,00 h 0,026 mm 0,0 UV-I 0 W/m -6,2 C -1,8 C 1,6 km/h (1 Bft)
12.02.2013 21:00 -1,9 C 72 % 1017,1 hPa 0,0 l/m 0,1 km/h (0 Bft) N 0,00 h 0,000 mm 0,0 UV-I 0 W/m -6,2 C -1,9 C 1,6 km/h (1 Bft)
12.02.2013 22:00 -1,9 C 72 % 1017,7 hPa 0,0 l/m 0,2 km/h (0 Bft) N-NW 0,00 h 0,000 mm 0,0 UV-I 0 W/m -6,3 C -1,9 C 1,3 km/h (1 Bft)
12.02.2013 23:00 -2,2 C 74 % 1017,9 hPa 0,0 l/m 0,1 km/h (0 Bft) N 0,00 h 0,000 mm 0,0 UV-I 0 W/m -6,2 C -2,2 C 0,4 km/h (0 Bft)
13.02.2013 00:00 -2,2 C 75 % 1018,5 hPa 0,0 l/m 0,1 km/h (0 Bft) N 0,00 h 0,000 mm 0,0 UV-I 0 W/m -6,1 C -2,2 C 1,2 km/h (1 Bft)
13.02.2013 01:00 -2,4 C 76 % 1018,9 hPa 0,0 l/m 0,3 km/h (0 Bft) N-NW 0,00 h 0,000 mm 0,0 UV-I 0 W/m -6,0 C -2,4 C 1,3 km/h (1 Bft)
13.02.2013 02:00 -2,5 C 77 % 1019,3 hPa 0,0 l/m 0,2 km/h (0 Bft) N 0,00 h 0,000 mm 0,0 UV-I 0 W/m -6,0 C -2,5 C 1,7 km/h (1 Bft)
13.02.2013 03:00 -2,4 C 76 % 1019,7 hPa 0,0 l/m 0,1 km/h (0 Bft) N 0,00 h 0,000 mm 0,0 UV-I 0 W/m -6,1 C -2,4 C 1,1 km/h (0 Bft)
13.02.2013 04:00 -2,4 C 75 % 1020,0 hPa 0,0 l/m 0,0 km/h (0 Bft) N 0,00 h 0,000 mm 0,0 UV-I 0 W/m -6,1 C -2,4 C 0,4 km/h (0 Bft)
13.02.2013 05:00 -2,4 C 76 % 1020,5 hPa 0,0 l/m 0,4 km/h (0 Bft) N-NW 0,00 h 0,000 mm 0,0 UV-I 0 W/m -6,0 C -2,4 C 2,3 km/h (1 Bft)
13.02.2013 06:00 -2,4 C 75 % 1021,1 hPa 0,0 l/m 0,2 km/h (0 Bft) N 0,00 h 0,000 mm 0,0 UV-I 0 W/m -6,2 C -2,4 C 2,1 km/h (1 Bft)
13.02.2013 07:00 -2,6 C 77 % 1021,8 hPa 0,0 l/m 0,0 km/h (0 Bft) N 0,00 h 0,000 mm 0,0 UV-I 0 W/m -6,1 C -2,6 C 0,5 km/h (0 Bft)
13.02.2013 08:00 -2,5 C 78 % 1022,7 hPa 0,0 l/m 0,0 km/h (0 Bft) N 0,00 h 0,000 mm 0,0 UV-I 27 W/m -5,8 C -2,5 C 0,4 km/h (0 Bft)
13.02.2013 09:00 -2,1 C 78 % 1023,3 hPa 0,0 l/m 0,8 km/h (0 Bft) SW 0,00 h 0,000 mm 0,5 UV-I 86 W/m -5,5 C -2,1 C 3,1 km/h (1 Bft)
13.02.2013 10:00 -1,2 C 74 % 1024,0 hPa 0,0 l/m 1,2 km/h (1 Bft) W-SW 0,08 h 0,025 mm 0,6 UV-I 150 W/m -5,3 C -1,2 C 2,9 km/h (1 Bft)
13.02.2013 11:00 1,2 C 62 % 1024,5 hPa 0,0 l/m 1,9 km/h (1 Bft) O-NO 1,00 h 0,051 mm 1,0 UV-I 421 W/m -5,3 C 1,2 C 6,2 km/h (2 Bft)
13.02.2013 12:00 1,2 C 55 % 1024,6 hPa 0,0 l/m 3,5 km/h (1 Bft) O-NO 0,17 h 0,153 mm 0,9 UV-I 266 W/m -6,9 C 1,2 C 9,5 km/h (2 Bft)
13.02.2013 13:00 0,7 C 55 % 1024,8 hPa 0,0 l/m 3,6 km/h (1 Bft) NO 0,08 h 0,101 mm 0,8 UV-I 180 W/m -7,2 C 0,7 C 9,3 km/h (2 Bft)
13.02.2013 14:00 0,9 C 56 % 1024,9 hPa 0,0 l/m 3,2 km/h (1 Bft) O-NO 0,08 h 0,076 mm 0,6 UV-I 175 W/m -6,9 C 0,8 C 8,6 km/h (2 Bft)
13.02.2013 15:00 0,7 C 56 % 1025,3 hPa 0,0 l/m 2,4 km/h (1 Bft) NO 0,08 h 0,077 mm 0,6 UV-I 120 W/m -7,1 C 0,6 C 6,0 km/h (2 Bft)
13.02.2013 16:00 0,2 C 56 % 1025,7 hPa 0,0 l/m 3,6 km/h (1 Bft) O 0,00 h 0,050 mm 0,0 UV-I 59 W/m -7,5 C 0,2 C 9,0 km/h (2 Bft)
13.02.2013 17:00 -1,0 C 61 % 1026,1 hPa 0,0 l/m 1,2 km/h (1 Bft) O-NO 0,00 h 0,026 mm 0,0 UV-I 18 W/m -7,5 C -1,0 C 3,9 km/h (1 Bft)
13.02.2013 18:00 -2,5 C 68 % 1026,5 hPa 0,0 l/m 0,0 km/h (0 Bft) N 0,00 h 0,000 mm 0,0 UV-I 0 W/m -7,6 C -2,5 C 0,3 km/h (0 Bft)
13.02.2013 19:00 -3,9 C 72 % 1026,7 hPa 0,0 l/m 0,1 km/h (0 Bft) N 0,00 h 0,000 mm 0,0 UV-I 0 W/m -8,2 C -3,9 C 0,3 km/h (0 Bft)
13.02.2013 20:00 -5,1 C 76 % 1026,8 hPa 0,0 l/m 0,0 km/h (0 Bft) N 0,00 h 0,000 mm 0,0 UV-I 0 W/m -8,7 C -5,1 C 0,3 km/h (0 Bft)
13.02.2013 21:00 -6,3 C 79 % 1027,3 hPa 0,0 l/m 0,0 km/h (0 Bft) N 0,00 h 0,000 mm 0,0 UV-I 0 W/m -9,4 C -6,3 C 0,0 km/h (0 Bft)
13.02.2013 22:00 -7,6 C 82 % 1027,2 hPa 0,0 l/m 0,0 km/h (0 Bft) N 0,00 h 0,000 mm 0,0 UV-I 0 W/m -10,0 C -7,6 C 0,0 km/h (0 Bft)
13.02.2013 23:00 -8,3 C 85 % 1027,2 hPa 0,0 l/m 0,0 km/h (0 Bft) N 0,00 h 0,000 mm 0,0 UV-I 0 W/m -10,5 C -8,3 C 0,1 km/h (0 Bft)
14.02.2013 00:00 -9,0 C 86 % 1027,2 hPa 0,0 l/m 0,0 km/h (0 Bft) N 0,00 h 0,000 mm 0,0 UV-I 0 W/m -11,0 C -9,0 C 0,0 km/h (0 Bft)
14.02.2013 01:00 -9,6 C 87 % 1027,1 hPa 0,0 l/m 0,0 km/h (0 Bft) N 0,00 h 0,000 mm 0,0 UV-I 0 W/m -11,4 C -9,6 C 0,0 km/h (0 Bft)
14.02.2013 02:00 -9,8 C 87 % 1026,7 hPa 0,0 l/m 0,0 km/h (0 Bft) N 0,00 h 0,000 mm 0,0 UV-I 0 W/m -11,5 C -9,8 C 0,1 km/h (0 Bft)
14.02.2013 03:00 -9,4 C 88 % 1026,2 hPa 0,0 l/m 0,1 km/h (0 Bft) N 0,00 h 0,000 mm 0,0 UV-I 0 W/m -11,0 C -9,4 C 1,2 km/h (1 Bft)
14.02.2013 04:00 -9,8 C 87 % 1025,8 hPa 0,0 l/m 0,0 km/h (0 Bft) N 0,00 h 0,000 mm 0,0 UV-I 0 W/m -11,6 C -9,8 C 0,0 km/h (0 Bft)
14.02.2013 05:00 -10,4 C 88 % 1025,6 hPa 0,0 l/m 0,0 km/h (0 Bft) N 0,00 h 0,000 mm 0,0 UV-I 0 W/m -12,0 C -10,4 C 0,0 km/h (0 Bft)
14.02.2013 06:00 -10,6 C 89 % 1025,2 hPa 0,0 l/m 0,0 km/h (0 Bft) N 0,00 h 0,000 mm 0,0 UV-I 0 W/m -12,1 C -10,6 C 0,0 km/h (0 Bft)
14.02.2013 07:00 -10,8 C 89 % 1024,9 hPa 0,0 l/m 0,0 km/h (0 Bft) N 0,00 h 0,000 mm 0,0 UV-I 8 W/m -12,3 C -10,8 C 0,0 km/h (0 Bft)
14.02.2013 08:00 -9,8 C 89 % 1024,5 hPa 0,0 l/m 0,0 km/h (0 Bft) N 0,33 h 0,000 mm 0,0 UV-I 61 W/m -11,3 C -9,8 C 0,3 km/h (0 Bft)
14.02.2013 09:00 -4,9 C 84 % 1023,9 hPa 0,0 l/m 4,7 km/h (1 Bft) O-NO 1,00 h 0,025 mm 0,6 UV-I 203 W/m -7,2 C -5,7 C 9,7 km/h (2 Bft)
14.02.2013 10:00 -1,8 C 77 % 1023,2 hPa 0,0 l/m 8,6 km/h (2 Bft) NO 1,00 h 0,077 mm 0,9 UV-I 329 W/m -5,2 C -4,1 C 15,3 km/h (3 Bft)
14.02.2013 11:00 -0,6 C 74 % 1022,6 hPa 0,0 l/m 7,2 km/h (2 Bft) O-NO 1,00 h 0,127 mm 1,2 UV-I 382 W/m -4,7 C -1,6 C 15,0 km/h (3 Bft)
14.02.2013 12:00 -0,2 C 72 % 1021,9 hPa 0,0 l/m 8,5 km/h (2 Bft) O 1,00 h 0,127 mm 1,3 UV-I 373 W/m -4,6 C -2,4 C 17,0 km/h (3 Bft)
14.02.2013 13:00 0,5 C 69 % 1020,9 hPa 0,0 l/m 7,9 km/h (2 Bft) O-SO 0,92 h 0,127 mm 1,1 UV-I 305 W/m -4,6 C -1,3 C 15,8 km/h (3 Bft)
14.02.2013 14:00 0,6 C 67 % 1020,0 hPa 0,0 l/m 7,5 km/h (2 Bft) O 0,00 h 0,127 mm 0,7 UV-I 157 W/m -4,9 C -0,8 C 15,4 km/h (3 Bft)
14.02.2013 15:00 0,3 C 70 % 1019,4 hPa 0,0 l/m 7,6 km/h (2 Bft) O-SO 0,00 h 0,076 mm 0,5 UV-I 90 W/m -4,5 C -1,0 C 15,0 km/h (3 Bft)
14.02.2013 16:00 0,3 C 71 % 1018,9 hPa 0,0 l/m 5,6 km/h (1 Bft) O 0,00 h 0,051 mm 0,0 UV-I 39 W/m -4,4 C 0,1 C 11,7 km/h (2 Bft)
14.02.2013 17:00 0,2 C 72 % 1018,5 hPa 0,0 l/m 3,9 km/h (1 Bft) O 0,00 h 0,025 mm 0,0 UV-I 9 W/m -4,3 C 0,2 C 10,1 km/h (2 Bft)
14.02.2013 18:00 0,2 C 71 % 1017,9 hPa 0,0 l/m 5,8 km/h (2 Bft) O 0,00 h 0,000 mm 0,0 UV-I 0 W/m -4,4 C -0,1 C 13,2 km/h (3 Bft)
14.02.2013 19:00 0,3 C 69 % 1017,3 hPa 0,0 l/m 6,7 km/h (2 Bft) O-NO 0,00 h 0,025 mm 0,0 UV-I 0 W/m -4,8 C -0,9 C 13,0 km/h (3 Bft)
14.02.2013 20:00 0,2 C 69 % 1017,3 hPa 0,0 l/m 2,0 km/h (1 Bft) O 0,00 h 0,026 mm 0,0 UV-I 0 W/m -4,9 C 0,2 C 6,9 km/h (2 Bft)
14.02.2013 21:00 0,1 C 70 % 1017,1 hPa 0,0 l/m 2,4 km/h (1 Bft) O-SO 0,00 h 0,025 mm 0,0 UV-I 0 W/m -4,7 C 0,1 C 7,5 km/h (2 Bft)
14.02.2013 22:00 -1,0 C 84 % 1017,1 hPa 0,0 l/m 1,6 km/h (1 Bft) O-NO 0,00 h 0,026 mm 0,0 UV-I 0 W/m -3,4 C -1,0 C 5,6 km/h (1 Bft)
14.02.2013 23:00 -1,5 C 90 % 1016,6 hPa 0,2 l/m 2,2 km/h (1 Bft) O-NO 0,00 h 0,000 mm 0,0 UV-I 0 W/m -3,0 C -1,5 C 5,6 km/h (1 Bft)
15.02.2013 00:00 -1,6 C 92 % 1016,4 hPa 0,2 l/m 2,5 km/h (1 Bft) O-NO 0,00 h 0,000 mm 0,0 UV-I 0 W/m -2,8 C -1,6 C 6,0 km/h (2 Bft)
15.02.2013 01:00 -1,6 C 92 % 1016,2 hPa 0,0 l/m 1,8 km/h (1 Bft) NO 0,00 h 0,000 mm 0,0 UV-I 0 W/m -2,7 C -1,6 C 4,7 km/h (1 Bft)
15.02.2013 02:00 -1,5 C 92 % 1016,1 hPa 0,2 l/m 0,2 km/h (0 Bft) N 0,00 h 0,000 mm 0,0 UV-I 0 W/m -2,7 C -1,5 C 1,7 km/h (1 Bft)
15.02.2013 03:00 -1,4 C 92 % 1015,9 hPa 0,0 l/m 0,3 km/h (0 Bft) N 0,00 h 0,000 mm 0,0 UV-I 0 W/m -2,6 C -1,4 C 2,0 km/h (1 Bft)
15.02.2013 04:00 -1,4 C 92 % 1015,8 hPa 0,0 l/m 0,3 km/h (0 Bft) NO 0,00 h 0,000 mm 0,0 UV-I 0 W/m -2,5 C -1,4 C 1,5 km/h (1 Bft)
15.02.2013 05:00 -1,4 C 92 % 1015,9 hPa 0,0 l/m 0,4 km/h (0 Bft) NO 0,00 h 0,000 mm 0,0 UV-I 0 W/m -2,5 C -1,4 C 2,1 km/h (1 Bft)
15.02.2013 06:00 -1,3 C 92 % 1016,3 hPa 0,0 l/m 0,2 km/h (0 Bft) NO 0,00 h 0,000 mm 0,0 UV-I 0 W/m -2,4 C -1,3 C 1,2 km/h (1 Bft)
15.02.2013 07:00 -1,3 C 92 % 1016,8 hPa 0,0 l/m 0,0 km/h (0 Bft) N 0,00 h 0,000 mm 0,0 UV-I 0 W/m -2,4 C -1,3 C 0,1 km/h (0 Bft)
15.02.2013 08:00 -1,1 C 92 % 1017,3 hPa 0,0 l/m 0,0 km/h (0 Bft) N 0,00 h 0,000 mm 0,0 UV-I 19 W/m -2,2 C -1,1 C 0,0 km/h (0 Bft)
15.02.2013 09:00 -0,4 C 90 % 1017,7 hPa 0,0 l/m 0,0 km/h (0 Bft) N 0,00 h 0,000 mm 0,0 UV-I 61 W/m -1,8 C -0,4 C 0,4 km/h (0 Bft)
15.02.2013 10:00 0,1 C 88 % 1018,2 hPa 0,0 l/m 0,2 km/h (0 Bft) O 0,00 h 0,025 mm 0,6 UV-I 110 W/m -1,6 C 0,1 C 1,9 km/h (1 Bft)
15.02.2013 11:00 0,7 C 88 % 1018,7 hPa 0,0 l/m 0,3 km/h (0 Bft) W-SW 0,00 h 0,051 mm 0,6 UV-I 129 W/m -1,1 C 0,7 C 2,3 km/h (1 Bft)
15.02.2013 12:00 1,0 C 88 % 1019,0 hPa 0,0 l/m 1,3 km/h (1 Bft) SW 0,00 h 0,051 mm 0,7 UV-I 158 W/m -0,7 C 1,0 C 4,3 km/h (1 Bft)
15.02.2013 13:00 1,6 C 87 % 1019,2 hPa 0,0 l/m 1,0 km/h (0 Bft) W 0,00 h 0,051 mm 0,7 UV-I 134 W/m -0,2 C 1,6 C 3,2 km/h (1 Bft)
15.02.2013 14:00 1,8 C 88 % 1019,4 hPa 0,0 l/m 1,6 km/h (1 Bft) SW 0,00 h 0,051 mm 0,6 UV-I 115 W/m 0,0 C 1,8 C 4,3 km/h (1 Bft)
15.02.2013 15:00 2,0 C 89 % 1019,6 hPa 0,0 l/m 1,5 km/h (1 Bft) W-SW 0,00 h 0,050 mm 0,5 UV-I 78 W/m 0,3 C 2,0 C 4,0 km/h (1 Bft)
15.02.2013 16:00 2,0 C 90 % 1019,9 hPa 0,0 l/m 1,3 km/h (1 Bft) W-SW 0,00 h 0,026 mm 0,0 UV-I 33 W/m 0,5 C 2,0 C 4,1 km/h (1 Bft)
15.02.2013 17:00 1,8 C 91 % 1020,3 hPa 0,0 l/m 0,2 km/h (0 Bft) N 0,00 h 0,000 mm 0,0 UV-I 9 W/m 0,4 C 1,8 C 1,2 km/h (1 Bft)
15.02.2013 18:00 1,8 C 91 % 1021,0 hPa 0,0 l/m 0,0 km/h (0 Bft) N 0,00 h 0,000 mm 0,0 UV-I 0 W/m 0,5 C 1,8 C 0,0 km/h (0 Bft)
15.02.2013 19:00 1,5 C 91 % 1021,5 hPa 0,2 l/m 0,0 km/h (0 Bft) N 0,00 h 0,000 mm 0,0 UV-I 0 W/m 0,2 C 1,5 C 0,0 km/h (0 Bft)
15.02.2013 20:00 1,3 C 93 % 1021,8 hPa 0,0 l/m 0,0 km/h (0 Bft) N 0,00 h 0,000 mm 0,0 UV-I 0 W/m 0,2 C 1,3 C 0,0 km/h (0 Bft)
15.02.2013 21:00 1,2 C 93 % 1022,2 hPa 0,0 l/m 0,0 km/h (0 Bft) N 0,00 h 0,000 mm 0,0 UV-I 0 W/m 0,2 C 1,2 C 0,1 km/h (0 Bft)
15.02.2013 22:00 1,1 C 94 % 1022,4 hPa 0,0 l/m 0,0 km/h (0 Bft) N 0,00 h 0,000 mm 0,0 UV-I 0 W/m 0,3 C 1,1 C 0,1 km/h (0 Bft)
15.02.2013 23:00 1,1 C 94 % 1022,5 hPa 0,0 l/m 0,0 km/h (0 Bft) N 0,00 h 0,000 mm 0,0 UV-I 0 W/m 0,2 C 1,1 C 0,0 km/h (0 Bft)
16.02.2013 00:00 1,1 C 95 % 1022,7 hPa 0,0 l/m 0,0 km/h (0 Bft) N 0,00 h 0,000 mm 0,0 UV-I 0 W/m 0,3 C 1,1 C 0,4 km/h (0 Bft)
16.02.2013 01:00 1,2 C 95 % 1022,7 hPa 0,0 l/m 0,0 km/h (0 Bft) N 0,00 h 0,000 mm 0,0 UV-I 0 W/m 0,5 C 1,2 C 0,1 km/h (0 Bft)
16.02.2013 02:00 1,2 C 95 % 1022,9 hPa 0,0 l/m 0,0 km/h (0 Bft) N 0,00 h 0,000 mm 0,0 UV-I 0 W/m 0,5 C 1,2 C 0,0 km/h (0 Bft)
16.02.2013 03:00 1,3 C 95 % 1022,7 hPa 0,0 l/m 0,0 km/h (0 Bft) N 0,00 h 0,000 mm 0,0 UV-I 0 W/m 0,6 C 1,3 C 0,0 km/h (0 Bft)
16.02.2013 04:00 1,2 C 95 % 1022,6 hPa 0,0 l/m 0,0 km/h (0 Bft) N 0,00 h 0,000 mm 0,0 UV-I 0 W/m 0,5 C 1,2 C 0,3 km/h (0 Bft)
16.02.2013 05:00 1,3 C 95 % 1022,8 hPa 0,0 l/m 0,0 km/h (0 Bft) N 0,00 h 0,000 mm 0,0 UV-I 0 W/m 0,6 C 1,3 C 0,0 km/h (0 Bft)
16.02.2013 06:00 1,3 C 95 % 1022,9 hPa 0,0 l/m 0,0 km/h (0 Bft) N 0,00 h 0,000 mm 0,0 UV-I 0 W/m 0,6 C 1,3 C 0,0 km/h (0 Bft)
16.02.2013 07:00 1,2 C 95 % 1023,1 hPa 0,0 l/m 0,0 km/h (0 Bft) N 0,00 h 0,000 mm 0,0 UV-I 0 W/m 0,5 C 1,2 C 0,1 km/h (0 Bft)
16.02.2013 08:00 1,3 C 95 % 1023,4 hPa 0,0 l/m 0,0 km/h (0 Bft) N 0,00 h 0,000 mm 0,0 UV-I 13 W/m 0,6 C 1,3 C 0,0 km/h (0 Bft)
16.02.2013 09:00 1,6 C 95 % 1023,6 hPa 0,0 l/m 0,0 km/h (0 Bft) N 0,00 h 0,000 mm 0,0 UV-I 31 W/m 0,9 C 1,6 C 0,0 km/h (0 Bft)
16.02.2013 10:00 2,2 C 95 % 1023,8 hPa 0,0 l/m 0,0 km/h (0 Bft) N 0,00 h 0,000 mm 0,5 UV-I 56 W/m 1,4 C 2,2 C 0,0 km/h (0 Bft)
16.02.2013 11:00 2,9 C 95 % 1024,1 hPa 0,0 l/m 0,0 km/h (0 Bft) N 0,00 h 0,025 mm 0,5 UV-I 80 W/m 2,2 C 2,9 C 0,1 km/h (0 Bft)
16.02.2013 12:00 3,5 C 94 % 1023,9 hPa 0,0 l/m 1,1 km/h (1 Bft) W-SW 0,00 h 0,026 mm 0,6 UV-I 117 W/m 2,7 C 3,5 C 3,5 km/h (1 Bft)
16.02.2013 13:00 3,9 C 93 % 1023,6 hPa 0,0 l/m 3,2 km/h (1 Bft) W 0,00 h 0,051 mm 0,6 UV-I 105 W/m 2,9 C 3,9 C 6,7 km/h (2 Bft)
16.02.2013 14:00 4,4 C 91 % 1023,4 hPa 0,0 l/m 1,8 km/h (1 Bft) W-SW 0,00 h 0,050 mm 0,6 UV-I 135 W/m 3,1 C 4,4 C 5,1 km/h (1 Bft)
16.02.2013 15:00 4,3 C 91 % 1023,4 hPa 0,0 l/m 3,2 km/h (1 Bft) W-SW 0,00 h 0,051 mm 0,0 UV-I 68 W/m 2,9 C 4,3 C 7,1 km/h (2 Bft)
16.02.2013 16:00 4,2 C 90 % 1023,6 hPa 0,0 l/m 1,4 km/h (1 Bft) W-NW 0,00 h 0,026 mm 0,0 UV-I 36 W/m 2,7 C 4,2 C 4,1 km/h (1 Bft)
16.02.2013 17:00 3,8 C 91 % 1023,7 hPa 0,0 l/m 0,0 km/h (0 Bft) N 0,00 h 0,025 mm 0,0 UV-I 11 W/m 2,5 C 3,8 C 0,3 km/h (0 Bft)
16.02.2013 18:00 3,3 C 92 % 1023,9 hPa 0,0 l/m 0,0 km/h (0 Bft) N 0,00 h 0,000 mm 0,0 UV-I 0 W/m 2,2 C 3,3 C 0,3 km/h (0 Bft)
16.02.2013 19:00 2,7 C 94 % 1024,2 hPa 0,0 l/m 0,5 km/h (0 Bft) W-NW 0,00 h 0,000 mm 0,0 UV-I 0 W/m 1,8 C 2,7 C 2,5 km/h (1 Bft)
16.02.2013 20:00 2,5 C 95 % 1024,3 hPa 0,0 l/m 0,9 km/h (0 Bft) W-NW 0,00 h 0,000 mm 0,0 UV-I 0 W/m 1,7 C 2,5 C 2,8 km/h (1 Bft)
16.02.2013 21:00 2,0 C 95 % 1024,3 hPa 0,0 l/m 0,1 km/h (0 Bft) N 0,00 h 0,000 mm 0,0 UV-I 0 W/m 1,2 C 2,0 C 1,1 km/h (0 Bft)
16.02.2013 22:00 1,5 C 94 % 1024,5 hPa 0,0 l/m 0,0 km/h (0 Bft) N 0,00 h 0,000 mm 0,0 UV-I 0 W/m 0,7 C 1,5 C 0,7 km/h (0 Bft)
16.02.2013 23:00 1,2 C 95 % 1024,6 hPa 0,0 l/m 0,0 km/h (0 Bft) N 0,00 h 0,000 mm 0,0 UV-I 0 W/m 0,4 C 1,2 C 0,1 km/h (0 Bft)
17.02.2013 00:00 0,8 C 95 % 1024,6 hPa 0,0 l/m 0,0 km/h (0 Bft) N 0,00 h 0,000 mm 0,0 UV-I 0 W/m 0,1 C 0,8 C 0,1 km/h (0 Bft)
17.02.2013 01:00 0,7 C 95 % 1024,4 hPa 0,0 l/m 0,2 km/h (0 Bft) N 0,00 h 0,000 mm 0,0 UV-I 0 W/m -0,0 C 0,7 C 1,7 km/h (1 Bft)
17.02.2013 02:00 0,6 C 95 % 1024,4 hPa 0,0 l/m 0,0 km/h (0 Bft) N 0,00 h 0,000 mm 0,0 UV-I 0 W/m -0,1 C 0,6 C 0,7 km/h (0 Bft)
17.02.2013 03:00 0,5 C 95 % 1024,3 hPa 0,0 l/m 0,0 km/h (0 Bft) N 0,00 h 0,000 mm 0,0 UV-I 0 W/m -0,2 C 0,5 C 0,0 km/h (0 Bft)
17.02.2013 04:00 0,5 C 95 % 1024,2 hPa 0,0 l/m 0,1 km/h (0 Bft) N 0,00 h 0,000 mm 0,0 UV-I 0 W/m -0,2 C 0,5 C 1,1 km/h (0 Bft)
17.02.2013 05:00 0,5 C 96 % 1024,2 hPa 0,0 l/m 0,1 km/h (0 Bft) N 0,00 h 0,000 mm 0,0 UV-I 0 W/m -0,1 C 0,5 C 0,9 km/h (0 Bft)
17.02.2013 06:00 0,6 C 96 % 1024,2 hPa 0,0 l/m 0,3 km/h (0 Bft) N 0,00 h 0,000 mm 0,0 UV-I 0 W/m 0,1 C 0,6 C 1,9 km/h (1 Bft)
17.02.2013 07:00 0,7 C 96 % 1024,3 hPa 0,0 l/m 0,0 km/h (0 Bft) N 0,00 h 0,000 mm 0,0 UV-I 5 W/m 0,1 C 0,7 C 0,1 km/h (0 Bft)
17.02.2013 08:00 0,8 C 96 % 1024,5 hPa 0,0 l/m 0,0 km/h (0 Bft) N 0,00 h 0,000 mm 0,0 UV-I 26 W/m 0,2 C 0,8 C 0,8 km/h (0 Bft)
17.02.2013 09:00 1,3 C 96 % 1024,5 hPa 0,0 l/m 0,1 km/h (0 Bft) N 0,00 h 0,000 mm 0,5 UV-I 79 W/m 0,8 C 1,3 C 1,3 km/h (1 Bft)
17.02.2013 10:00 2,6 C 95 % 1024,6 hPa 0,0 l/m 0,4 km/h (0 Bft) O-NO 0,17 h 0,025 mm 0,7 UV-I 159 W/m 1,9 C 2,6 C 2,5 km/h (1 Bft)
17.02.2013 11:00 5,8 C 82 % 1024,4 hPa 0,0 l/m 3,4 km/h (1 Bft) NO 1,00 h 0,077 mm 1,2 UV-I 543 W/m 3,0 C 5,7 C 9,8 km/h (2 Bft)
17.02.2013 12:00 5,1 C 81 % 1024,1 hPa 0,0 l/m 6,0 km/h (2 Bft) O-SO 0,75 h 0,203 mm 1,4 UV-I 415 W/m 2,1 C 4,7 C 12,4 km/h (3 Bft)
17.02.2013 13:00 5,5 C 76 % 1023,7 hPa 0,0 l/m 6,9 km/h (2 Bft) O-NO 0,92 h 0,178 mm 1,1 UV-I 441 W/m 1,7 C 4,9 C 14,0 km/h (3 Bft)
17.02.2013 14:00 5,6 C 74 % 1023,4 hPa 0,0 l/m 4,6 km/h (1 Bft) O-NO 0,25 h 0,177 mm 0,7 UV-I 159 W/m 1,4 C 5,5 C 10,5 km/h (2 Bft)
17.02.2013 15:00 4,6 C 76 % 1023,2 hPa 0,0 l/m 5,1 km/h (1 Bft) NO 0,00 h 0,077 mm 0,5 UV-I 79 W/m 0,8 C 4,4 C 11,0 km/h (2 Bft)
17.02.2013 16:00 4,1 C 78 % 1023,2 hPa 0,0 l/m 5,2 km/h (1 Bft) O-NO 0,00 h 0,050 mm 0,0 UV-I 30 W/m 0,6 C 4,1 C 10,5 km/h (2 Bft)
17.02.2013 17:00 3,5 C 77 % 1023,1 hPa 0,0 l/m 2,6 km/h (1 Bft) NO 0,00 h 0,026 mm 0,0 UV-I 10 W/m -0,1 C 3,5 C 7,9 km/h (2 Bft)
17.02.2013 18:00 3,0 C 79 % 1023,3 hPa 0,0 l/m 0,4 km/h (0 Bft) O-NO 0,00 h 0,000 mm 0,0 UV-I 0 W/m -0,3 C 3,0 C 2,0 km/h (1 Bft)
17.02.2013 19:00 2,6 C 81 % 1023,3 hPa 0,0 l/m 0,1 km/h (0 Bft) O-NO 0,00 h 0,000 mm 0,0 UV-I 0 W/m -0,4 C 2,6 C 0,7 km/h (0 Bft)
17.02.2013 20:00 1,8 C 84 % 1023,2 hPa 0,0 l/m 0,1 km/h (0 Bft) N 0,00 h 0,000 mm 0,0 UV-I 0 W/m -0,6 C 1,8 C 0,7 km/h (0 Bft)
17.02.2013 21:00 1,7 C 85 % 1023,1 hPa 0,0 l/m 0,0 km/h (0 Bft) N 0,00 h 0,000 mm 0,0 UV-I 0 W/m -0,6 C 1,7 C 0,3 km/h (0 Bft)
17.02.2013 22:00 1,5 C 83 % 1023,1 hPa 0,0 l/m 0,1 km/h (0 Bft) N 0,00 h 0,000 mm 0,0 UV-I 0 W/m -1,1 C 1,5 C 1,1 km/h (0 Bft)
17.02.2013 23:00 1,3 C 83 % 1023,0 hPa 0,0 l/m 0,1 km/h (0 Bft) N 0,00 h 0,000 mm 0,0 UV-I 0 W/m -1,4 C 1,3 C 1,5 km/h (1 Bft)
Min-Datum _ 14.02.13 13.02.13 11.02.13 - 12.02.13 - - - - - 14.02.13 14.02.13 12.02.13
_ Min-Zeit 07:05 12:30 13:50 - 17:10 - - - - - 06:50 07:40 17:10
Minimum _ -10,9 C 50 % 1003,8 hPa - 0,0 km/h (0 Bft) - - - - - -12,4 C -10,9 C 0,0 km/h (0 Bft)
Max-Datum _ 17.02.13 17.02.13 13.02.13 14.02.13 11.02.13 - 11.02.13 17.02.13 17.02.13 17.02.13 17.02.13 17.02.13 12.02.13
_ Max-Zeit 11:30 02:40 21:10 23:50 13:20 - 11:05 12:05 12:10 11:50 11:25 11:30 07:20
Maximum _ 7,0 C 96 % 1027,4 hPa 0,2 l/m 15,5 km/h
O-NO (3 Bft)
- 0,08 h 0,203 mm 1,5 UV-I 680 W/m 4,1 C 6,9 C 35,4 km/h
O-NO (5 Bft)
Durchschnitt _ -1,0 C 82 % 1018,5 hPa #0,8 l/m 3,0 km/h (1 Bft) O-NO #14:35 h #4,370 mm 0,7 UV-I 130 W/m -3,8 C -1,6 C 6,9 km/h (2 Bft)